Time,TemperatureF,DewpointF,PressureIn,WindDirection,WindDirectionDegrees,WindSpeedMPH,WindSpeedGustMPH,Humidity,HourlyPrecipIn,Conditions,Clouds,dailyrainin,SoftwareType,DateUTC
2013-05-21 00:01:00,56.0,-99.9,29.93,NNW,336,2.0,8.0,-999,-99.99,,,-99.99,,2013-05-21 07:01:00,
2013-05-21 00:11:00,55.0,-99.9,29.93,NW,325,4.0,9.0,-999,-99.99,,,-99.99,,2013-05-21 07:11:00,
2013-05-21 00:22:00,54.0,-99.9,29.92,NW,317,10.0,12.0,-999,-99.99,,,-99.99,,2013-05-21 07:22:00,
2013-05-21 00:32:00,53.0,-99.9,29.92,NW,315,12.0,15.0,-999,-99.99,,,-99.99,,2013-05-21 07:32:00,
2013-05-21 00:42:00,53.0,-99.9,29.92,NW,325,4.0,9.0,-999,-99.99,,,-99.99,,2013-05-21 07:42:00,
2013-05-21 00:52:00,53.0,-99.9,29.92,NW,311,6.0,12.0,-999,-99.99,,,-99.99,,2013-05-21 07:52:00,
2013-05-21 01:02:00,53.0,-99.9,29.92,NW,317,9.0,11.0,-999,-99.99,,,-99.99,,2013-05-21 08:02:00,
2013-05-21 01:11:00,53.0,-99.9,29.91,NW,323,7.0,11.0,-999,-99.99,,,-99.99,,2013-05-21 08:11:00,
2013-05-21 01:21:00,52.0,-99.9,29.92,NW,320,9.0,11.0,-999,-99.99,,,-99.99,,2013-05-21 08:21:00,
2013-05-21 01:31:00,52.0,-99.9,29.91,NNW,342,5.0,9.0,-999,-99.99,,,-99.99,,2013-05-21 08:31:00,
2013-05-21 01:42:00,52.0,-99.9,29.91,NNW,328,4.0,7.0,-999,-99.99,,,-99.99,,2013-05-21 08:42:00,
2013-05-21 01:52:00,52.0,-99.9,29.91,NNW,329,6.0,8.0,-999,-99.99,,,-99.99,,2013-05-21 08:52:00,
2013-05-21 02:01:00,51.0,-99.9,29.91,NW,314,4.0,11.0,-999,-99.99,,,-99.99,,2013-05-21 09:01:00,
2013-05-21 02:11:00,51.0,-99.9,29.91,NNW,342,9.0,12.0,-999,-99.99,,,-99.99,,2013-05-21 09:11:00,
2013-05-21 02:21:00,51.0,-99.9,29.91,North,351,6.0,11.0,-999,-99.99,,,-99.99,,2013-05-21 09:21:00,
2013-05-21 02:33:00,50.0,-99.9,29.91,North,359,7.0,15.0,-999,-99.99,,,-99.99,,2013-05-21 09:33:00,
2013-05-21 02:42:00,50.0,-99.9,29.90,NNE,21,9.0,12.0,-999,-99.99,,,-99.99,,2013-05-21 09:42:00,
2013-05-21 02:53:00,50.0,-99.9,29.90,NNE,12,5.0,9.0,-999,-99.99,,,-99.99,,2013-05-21 09:53:00,
2013-05-21 03:03:00,50.0,-99.9,29.90,NE,34,4.0,8.0,-999,-99.99,,,-99.99,,2013-05-21 10:03:00,
2013-05-21 03:12:00,50.0,-99.9,29.90,WNW,299,3.0,5.0,-999,-99.99,,,-99.99,,2013-05-21 10:12:00,
2013-05-21 03:22:00,50.0,-99.9,29.90,WSW,243,3.0,4.0,-999,-99.99,,,-99.99,,2013-05-21 10:22:00,
2013-05-21 03:33:00,50.0,-99.9,29.89,SW,236,2.0,3.0,-999,-99.99,,,-99.99,,2013-05-21 10:33:00,
2013-05-21 03:42:00,49.0,-99.9,29.89,West,267,4.0,5.0,-999,-99.99,,,-99.99,,2013-05-21 10:42:00,
2013-05-21 03:53:00,49.0,-99.9,29.89,WSW,245,4.0,5.0,-999,-99.99,,,-99.99,,2013-05-21 10:53:00,
2013-05-21 04:02:00,49.0,-99.9,29.89,SW,226,6.0,8.0,-999,-99.99,,,-99.99,,2013-05-21 11:02:00,
2013-05-21 04:12:00,49.0,-99.9,29.89,WSW,249,5.0,8.0,-999,-99.99,,,-99.99,,2013-05-21 11:12:00,
2013-05-21 04:22:00,48.0,-99.9,29.89,SW,219,4.0,6.0,-999,-99.99,,,-99.99,,2013-05-21 11:22:00,
2013-05-21 04:32:00,48.0,-99.9,29.88,SW,226,5.0,8.0,-999,-99.99,,,-99.99,,2013-05-21 11:32:00,
2013-05-21 04:42:00,48.0,-99.9,29.88,SW,220,4.0,7.0,-999,-99.99,,,-99.99,,2013-05-21 11:42:00,
2013-05-21 04:52:00,48.0,-99.9,29.88,South,179,3.0,5.0,-999,-99.99,,,-99.99,,2013-05-21 11:52:00,
2013-05-21 05:02:00,48.0,-99.9,29.88,SSW,204,3.0,5.0,-999,-99.99,,,-99.99,,2013-05-21 12:02:00,
2013-05-21 05:11:00,48.0,-99.9,29.88,SSW,197,5.0,6.0,-999,-99.99,,,-99.99,,2013-05-21 12:11:00,
2013-05-21 05:21:00,48.0,-99.9,29.88,SSW,206,4.0,5.0,-999,-99.99,,,-99.99,,2013-05-21 12:21:00,
2013-05-21 05:32:00,47.0,-99.9,29.88,South,174,4.0,8.0,-999,-99.99,,,-99.99,,2013-05-21 12:32:00,
2013-05-21 05:42:00,47.0,-99.9,29.88,South,179,3.0,8.0,-999,-99.99,,,-99.99,,2013-05-21 12:42:00,
2013-05-21 05:52:00,47.0,-99.9,29.88,SSW,211,5.0,8.0,-999,-99.99,,,-99.99,,2013-05-21 12:52:00,
2013-05-21 06:01:00,47.0,-99.9,29.87,SSW,200,2.0,5.0,-999,-99.99,,,-99.99,,2013-05-21 13:01:00,
2013-05-21 06:12:00,47.0,-99.9,29.87,SSE,153,5.0,11.0,-999,-99.99,,,-99.99,,2013-05-21 13:12:00,
2013-05-21 06:22:00,48.0,-99.9,29.87,SSE,159,6.0,12.0,-999,-99.99,,,-99.99,,2013-05-21 13:22:00,
2013-05-21 06:32:00,47.0,-99.9,29.87,SSE,162,6.0,10.0,-999,-99.99,,,-99.99,,2013-05-21 13:32:00,
2013-05-21 06:42:00,47.0,-99.9,29.87,SSE,158,6.0,11.0,-999,-99.99,,,-99.99,,2013-05-21 13:42:00,
2013-05-21 06:52:00,47.0,-99.9,29.87,South,175,4.0,11.0,-999,-99.99,,,-99.99,,2013-05-21 13:52:00,
2013-05-21 07:02:00,47.0,-99.9,29.87,South,173,5.0,12.0,-999,-99.99,,,-99.99,,2013-05-21 14:02:00,
2013-05-21 07:11:00,47.0,-99.9,29.87,South,173,6.0,9.0,-999,-99.99,,,-99.99,,2013-05-21 14:11:00,
2013-05-21 07:21:00,48.0,-99.9,29.87,South,181,4.0,10.0,-999,-99.99,,,-99.99,,2013-05-21 14:21:00,
2013-05-21 07:32:00,48.0,-99.9,29.86,SSE,168,6.0,12.0,-999,-99.99,,,-99.99,,2013-05-21 14:32:00,
2013-05-21 07:42:00,48.0,-99.9,29.86,South,174,8.0,11.0,-999,-99.99,,,-99.99,,2013-05-21 14:42:00,
2013-05-21 07:52:00,47.0,-99.9,29.86,SSE,168,8.0,13.0,-999,-99.99,,,-99.99,,2013-05-21 14:52:00,
2013-05-21 08:01:00,47.0,-99.9,29.85,SE,145,7.0,11.0,-999,-99.99,,,-99.99,,2013-05-21 15:01:00,
2013-05-21 08:11:00,48.0,-99.9,29.85,South,191,7.0,12.0,-999,-99.99,,,-99.99,,2013-05-21 15:11:00,
2013-05-21 08:21:00,47.0,-99.9,29.85,South,171,7.0,10.0,-999,-99.99,,,-99.99,,2013-05-21 15:21:00,
2013-05-21 08:33:00,48.0,-99.9,29.85,South,173,4.0,9.0,-999,-99.99,,,-99.99,,2013-05-21 15:33:00,
2013-05-21 08:42:00,48.0,-99.9,29.85,South,169,6.0,10.0,-999,-99.99,,,-99.99,,2013-05-21 15:42:00,
2013-05-21 08:53:00,48.0,-99.9,29.85,South,175,7.0,10.0,-999,-99.99,,,-99.99,,2013-05-21 15:53:00,
2013-05-21 09:03:00,48.0,-99.9,29.84,South,187,6.0,10.0,-999,-99.99,,,-99.99,,2013-05-21 16:03:00,
2013-05-21 09:13:00,48.0,-99.9,29.84,South,175,7.0,11.0,-999,-99.99,,,-99.99,,2013-05-21 16:13:00,
2013-05-21 09:23:00,49.0,-99.9,29.84,SSE,167,5.0,9.0,-999,-99.99,,,-99.99,,2013-05-21 16:23:00,
2013-05-21 09:32:00,49.0,-99.9,29.83,SSE,155,6.0,9.0,-999,-99.99,,,-99.99,,2013-05-21 16:32:00,
2013-05-21 09:42:00,49.0,-99.9,29.83,South,176,6.0,10.0,-999,-99.99,,,-99.99,,2013-05-21 16:42:00,
2013-05-21 09:53:00,49.0,-99.9,29.83,SSW,200,7.0,10.0,-999,-99.99,,,-99.99,,2013-05-21 16:53:00,
2013-05-21 10:02:00,49.0,-99.9,29.83,South,178,7.0,9.0,-999,-99.99,,,-99.99,,2013-05-21 17:02:00,
2013-05-21 10:12:00,49.0,-99.9,29.83,SSE,155,7.0,11.0,-999,-99.99,,,-99.99,,2013-05-21 17:12:00,
2013-05-21 10:23:00,49.0,-99.9,29.83,South,177,6.0,8.0,-999,-99.99,,,-99.99,,2013-05-21 17:23:00,
2013-05-21 10:33:00,50.0,-99.9,29.83,SSW,199,4.0,8.0,-999,-99.99,,,-99.99,,2013-05-21 17:33:00,
2013-05-21 10:44:00,50.0,-99.9,29.83,South,182,7.0,13.0,-999,-99.99,,,-99.99,,2013-05-21 17:44:00,
2013-05-21 10:52:00,50.0,-99.9,29.83,SSW,210,9.0,11.0,-999,-99.99,,,-99.99,,2013-05-21 17:52:00,
2013-05-21 11:02:00,51.0,-99.9,29.82,SSW,204,5.0,8.0,-999,-99.99,,,-99.99,,2013-05-21 18:02:00,
2013-05-21 11:13:00,51.0,-99.9,29.82,South,185,4.0,10.0,-999,-99.99,,,-99.99,,2013-05-21 18:13:00,
2013-05-21 11:22:00,51.0,-99.9,29.82,SSE,162,7.0,12.0,-999,-99.99,,,-99.99,,2013-05-21 18:22:00,
2013-05-21 11:32:00,51.0,-99.9,29.81,SSW,209,3.0,8.0,-999,-99.99,,,-99.99,,2013-05-21 18:32:00,
2013-05-21 11:42:00,51.0,-99.9,29.82,South,174,4.0,8.0,-999,-99.99,,,-99.99,,2013-05-21 18:42:00,
2013-05-21 11:52:00,52.0,-99.9,29.81,SSW,209,6.0,9.0,-999,-99.99,,,-99.99,,2013-05-21 18:52:00,
2013-05-21 12:02:00,51.0,-99.9,29.81,SSW,198,7.0,9.0,-999,-99.99,,,-99.99,,2013-05-21 19:02:00,
2013-05-21 12:12:00,52.0,-99.9,29.82,SSW,205,5.0,10.0,-999,-99.99,,,-99.99,,2013-05-21 19:12:00,
2013-05-21 12:22:00,53.0,-99.9,29.81,SSW,204,6.0,11.0,-999,-99.99,,,-99.99,,2013-05-21 19:22:00,
2013-05-21 12:32:00,53.0,-99.9,29.81,SW,222,8.0,12.0,-999,-99.99,,,-99.99,,2013-05-21 19:32:00,
2013-05-21 12:42:00,53.0,-99.9,29.81,SE,133,1.0,8.0,-999,-99.99,,,-99.99,,2013-05-21 19:42:00,
2013-05-21 12:52:00,54.0,-99.9,29.81,South,169,3.0,10.0,-999,-99.99,,,-99.99,,2013-05-21 19:52:00,
2013-05-21 13:03:00,53.0,-99.9,29.81,SSE,165,6.0,11.0,-999,-99.99,,,-99.99,,2013-05-21 20:03:00,
2013-05-21 13:11:00,53.0,-99.9,29.81,SSW,198,6.0,12.0,-999,-99.99,,,-99.99,,2013-05-21 20:11:00,
2013-05-21 13:22:00,54.0,-99.9,29.81,SSW,194,6.0,14.0,-999,-99.99,,,-99.99,,2013-05-21 20:22:00,
2013-05-21 13:33:00,54.0,-99.9,29.80,SSW,209,11.0,13.0,-999,-99.99,,,-99.99,,2013-05-21 20:33:00,
2013-05-21 13:42:00,54.0,-99.9,29.80,SSW,193,7.0,12.0,-999,-99.99,,,-99.99,,2013-05-21 20:42:00,
2013-05-21 13:52:00,55.0,-99.9,29.80,South,187,7.0,11.0,-999,-99.99,,,-99.99,,2013-05-21 20:52:00,
2013-05-21 14:02:00,56.0,-99.9,29.80,South,173,10.0,15.0,-999,-99.99,,,-99.99,,2013-05-21 21:02:00,
2013-05-21 14:11:00,56.0,-99.9,29.80,SSW,212,10.0,14.0,-999,-99.99,,,-99.99,,2013-05-21 21:11:00,
2013-05-21 14:22:00,56.0,-99.9,29.80,SSW,196,5.0,11.0,-999,-99.99,,,-99.99,,2013-05-21 21:22:00,
2013-05-21 14:33:00,56.0,-99.9,29.80,SSW,200,8.0,11.0,-999,-99.99,,,-99.99,,2013-05-21 21:33:00,
2013-05-21 14:44:00,56.0,-99.9,29.80,South,190,7.0,14.0,-999,-99.99,,,-99.99,,2013-05-21 21:44:00,
2013-05-21 14:54:00,57.0,-99.9,29.80,SSW,204,9.0,14.0,-999,-99.99,,,-99.99,,2013-05-21 21:54:00,
2013-05-21 15:02:00,55.0,-99.9,29.80,WSW,248,12.0,23.0,-999,-99.99,,,-99.99,,2013-05-21 22:02:00,
2013-05-21 15:13:00,53.0,-99.9,29.80,NNW,337,2.0,19.0,-999,-99.99,,,-99.99,,2013-05-21 22:13:00,
2013-05-21 15:23:00,53.0,-99.9,29.81,North,349,1.0,6.0,-999,-99.99,,,-99.99,,2013-05-21 22:23:00,
2013-05-21 15:34:00,53.0,-99.9,29.81,NW,312,9.0,10.0,-999,-99.99,,,-99.99,,2013-05-21 22:34:00,
2013-05-21 15:42:00,52.0,-99.9,29.81,NNW,331,3.0,5.0,-999,-99.99,,,-99.99,,2013-05-21 22:42:00,
2013-05-21 15:53:00,53.0,-99.9,29.80,NNW,340,3.0,5.0,-999,-99.99,,,-99.99,,2013-05-21 22:53:00,
2013-05-21 16:02:00,54.0,-99.9,29.80,NNE,15,1.0,2.0,-999,-99.99,,,-99.99,,2013-05-21 23:02:00,
2013-05-21 16:12:00,53.0,-99.9,29.80,NW,319,2.0,6.0,-999,-99.99,,,-99.99,,2013-05-21 23:12:00,
2013-05-21 16:22:00,53.0,-99.9,29.80,WNW,299,7.0,8.0,-999,-99.99,,,-99.99,,2013-05-21 23:22:00,
2013-05-21 16:32:00,52.0,-99.9,29.80,WNW,295,6.0,9.0,-999,-99.99,,,-99.99,,2013-05-21 23:32:00,
2013-05-21 16:42:00,52.0,-99.9,29.80,NW,323,4.0,5.0,-999,-99.99,,,-99.99,,2013-05-21 23:42:00,
2013-05-21 16:52:00,53.0,-99.9,29.80,NW,322,4.0,6.0,-999,-99.99,,,-99.99,,2013-05-21 23:52:00,
2013-05-21 17:01:00,53.0,-99.9,29.80,NW,326,3.0,5.0,-999,-99.99,,,-99.99,,2013-05-22 00:01:00,
2013-05-21 17:11:00,52.0,-99.9,29.80,NNW,334,2.0,3.0,-999,-99.99,,,-99.99,,2013-05-22 00:11:00,
2013-05-21 17:22:00,52.0,-99.9,29.80,WNW,298,3.0,3.0,-999,-99.99,,,-99.99,,2013-05-22 00:22:00,
2013-05-21 17:32:00,52.0,-99.9,29.80,West,281,2.0,2.0,-999,-99.99,,,-99.99,,2013-05-22 00:32:00,
2013-05-21 17:42:00,52.0,-99.9,29.80,WSW,251,2.0,2.0,-999,-99.99,,,-99.99,,2013-05-22 00:42:00,
2013-05-21 17:52:00,52.0,-99.9,29.80,West,265,3.0,3.0,-999,-99.99,,,-99.99,,2013-05-22 00:52:00,
2013-05-21 18:01:00,51.0,-99.9,29.80,North,2,2.0,4.0,-999,-99.99,,,-99.99,,2013-05-22 01:01:00,
2013-05-21 18:11:00,51.0,-99.9,29.80,NNW,331,2.0,3.0,-999,-99.99,,,-99.99,,2013-05-22 01:11:00,
2013-05-21 18:22:00,51.0,-99.9,29.80,NNW,327,3.0,3.0,-999,-99.99,,,-99.99,,2013-05-22 01:22:00,
2013-05-21 18:32:00,52.0,-99.9,29.81,WNW,290,5.0,6.0,-999,-99.99,,,-99.99,,2013-05-22 01:32:00,
2013-05-21 18:42:00,52.0,-99.9,29.81,North,360,0.0,2.0,-999,-99.99,,,-99.99,,2013-05-22 01:42:00,
2013-05-21 18:52:00,52.0,-99.9,29.81,NNE,18,1.0,3.0,-999,-99.99,,,-99.99,,2013-05-22 01:52:00,
2013-05-21 19:02:00,53.0,-99.9,29.81,NW,315,7.0,7.0,-999,-99.99,,,-99.99,,2013-05-22 02:02:00,
2013-05-21 19:12:00,53.0,-99.9,29.82,NW,318,4.0,5.0,-999,-99.99,,,-99.99,,2013-05-22 02:12:00,
2013-05-21 19:22:00,54.0,-99.9,29.82,NNW,345,0.0,4.0,-999,-99.99,,,-99.99,,2013-05-22 02:22:00,
2013-05-21 19:32:00,53.0,-99.9,29.82,West,263,2.0,4.0,-999,-99.99,,,-99.99,,2013-05-22 02:32:00,
2013-05-21 19:42:00,52.0,-99.9,29.83,West,265,3.0,4.0,-999,-99.99,,,-99.99,,2013-05-22 02:42:00,
2013-05-21 19:52:00,52.0,-99.9,29.83,WSW,252,4.0,6.0,-999,-99.99,,,-99.99,,2013-05-22 02:52:00,
2013-05-21 20:01:00,52.0,-99.9,29.83,WSW,252,4.0,8.0,-999,-99.99,,,-99.99,,2013-05-22 03:01:00,
2013-05-21 20:11:00,53.0,-99.9,29.84,SW,231,10.0,15.0,-999,-99.99,,,-99.99,,2013-05-22 03:11:00,
2013-05-21 20:22:00,53.0,-99.9,29.84,SSW,202,6.0,15.0,-999,-99.99,,,-99.99,,2013-05-22 03:22:00,
2013-05-21 20:33:00,52.0,-99.9,29.85,SSW,209,13.0,18.0,-999,-99.99,,,-99.99,,2013-05-22 03:33:00,
2013-05-21 20:43:00,51.0,-99.9,29.85,SW,218,13.0,15.0,-999,-99.99,,,-99.99,,2013-05-22 03:43:00,
2013-05-21 20:53:00,51.0,-99.9,29.85,SSW,208,9.0,14.0,-999,-99.99,,,-99.99,,2013-05-22 03:53:00,
2013-05-21 21:04:00,51.0,-99.9,29.85,SSW,205,8.0,16.0,-999,-99.99,,,-99.99,,2013-05-22 04:04:00,
2013-05-21 21:13:00,51.0,-99.9,29.86,SSW,194,9.0,13.0,-999,-99.99,,,-99.99,,2013-05-22 04:13:00,
2013-05-21 21:23:00,51.0,-99.9,29.86,SW,216,4.0,12.0,-999,-99.99,,,-99.99,,2013-05-22 04:23:00,
2013-05-21 21:33:00,51.0,-99.9,29.86,SSE,164,5.0,12.0,-999,-99.99,,,-99.99,,2013-05-22 04:33:00,
2013-05-21 21:43:00,51.0,-99.9,29.87,SSW,193,7.0,10.0,-999,-99.99,,,-99.99,,2013-05-22 04:43:00,
2013-05-21 21:53:00,51.0,-99.9,29.87,South,189,8.0,18.0,-999,-99.99,,,-99.99,,2013-05-22 04:53:00,
2013-05-21 22:02:00,51.0,-99.9,29.87,SSW,196,7.0,12.0,-999,-99.99,,,-99.99,,2013-05-22 05:02:00,
2013-05-21 22:12:00,50.0,-99.9,29.87,SSW,212,9.0,14.0,-999,-99.99,,,-99.99,,2013-05-22 05:12:00,
2013-05-21 22:22:00,50.0,-99.9,29.87,SSW,206,10.0,16.0,-999,-99.99,,,-99.99,,2013-05-22 05:22:00,
2013-05-21 22:32:00,50.0,-99.9,29.87,SSW,204,5.0,11.0,-999,-99.99,,,-99.99,,2013-05-22 05:32:00,
2013-05-21 22:42:00,50.0,-99.9,29.87,South,177,5.0,9.0,-999,-99.99,,,-99.99,,2013-05-22 05:42:00,
2013-05-21 22:52:00,50.0,-99.9,29.87,South,183,6.0,13.0,-999,-99.99,,,-99.99,,2013-05-22 05:52:00,
2013-05-21 23:01:00,50.0,-99.9,29.88,South,187,6.0,12.0,-999,-99.99,,,-99.99,,2013-05-22 06:01:00,
2013-05-21 23:12:00,50.0,-99.9,29.87,SSW,198,9.0,15.0,-999,-99.99,,,-99.99,,2013-05-22 06:12:00,
2013-05-21 23:21:00,50.0,-99.9,29.87,SSW,208,11.0,14.0,-999,-99.99,,,-99.99,,2013-05-22 06:21:00,
2013-05-21 23:32:00,49.0,-99.9,29.87,South,190,8.0,13.0,-999,-99.99,,,-99.99,,2013-05-22 06:32:00,
2013-05-21 23:42:00,49.0,-99.9,29.87,South,188,5.0,9.0,-999,-99.99,,,-99.99,,2013-05-22 06:42:00,
2013-05-21 23:52:00,49.0,-99.9,29.87,SSW,196,6.0,11.0,-999,-99.99,,,-99.99,,2013-05-22 06:52:00,